sensor_id;sensor_type;location;lat;lon;timestamp;P1;P2;P0
64114;PMS5003;62188;35.640;139.748;2023-10-31T00:02:14;19;18;
64114;PMS5003;62188;35.640;139.748;2023-10-31T00:04:33;16;16;
64114;PMS5003;62188;35.640;139.748;2023-10-31T00:06:59;13;13;
64114;PMS5003;62188;35.640;139.748;2023-10-31T00:09:24;16;15;
64114;PMS5003;62188;35.640;139.748;2023-10-31T00:11:49;16;15;
64114;PMS5003;62188;35.640;139.748;2023-10-31T00:14:14;13;13;
64114;PMS5003;62188;35.640;139.748;2023-10-31T00:16:40;18;17;
64114;PMS5003;62188;35.640;139.748;2023-10-31T00:19:05;20;20;
64114;PMS5003;62188;35.640;139.748;2023-10-31T00:21:31;16;15;
64114;PMS5003;62188;35.640;139.748;2023-10-31T00:23:56;15;14;
64114;PMS5003;62188;35.640;139.748;2023-10-31T00:26:22;16;15;
64114;PMS5003;62188;35.640;139.748;2023-10-31T00:28:47;17;16;
64114;PMS5003;62188;35.640;139.748;2023-10-31T00:31:12;19;15;
64114;PMS5003;62188;35.640;139.748;2023-10-31T00:33:38;17;16;
64114;PMS5003;62188;35.640;139.748;2023-10-31T00:36:03;15;14;
64114;PMS5003;62188;35.640;139.748;2023-10-31T00:38:28;23;19;
64114;PMS5003;62188;35.640;139.748;2023-10-31T00:40:54;19;16;
64114;PMS5003;62188;35.640;139.748;2023-10-31T00:43:19;17;15;
64114;PMS5003;62188;35.640;139.748;2023-10-31T00:45:45;19;19;
64114;PMS5003;62188;35.640;139.748;2023-10-31T00:48:10;19;19;
64114;PMS5003;62188;35.640;139.748;2023-10-31T00:50:35;20;17;
64114;PMS5003;62188;35.640;139.748;2023-10-31T00:53:01;20;15;
64114;PMS5003;62188;35.640;139.748;2023-10-31T00:55:26;21;17;
64114;PMS5003;62188;35.640;139.748;2023-10-31T00:57:52;15;15;
64114;PMS5003;62188;35.640;139.748;2023-10-31T01:00:17;16;15;
64114;PMS5003;62188;35.640;139.748;2023-10-31T01:02:42;16;16;
64114;PMS5003;62188;35.640;139.748;2023-10-31T01:05:10;16;16;
64114;PMS5003;62188;35.640;139.748;2023-10-31T01:07:33;16;14;
64114;PMS5003;62188;35.640;139.748;2023-10-31T01:09:58;16;14;
64114;PMS5003;62188;35.640;139.748;2023-10-31T01:12:24;16;15;
64114;PMS5003;62188;35.640;139.748;2023-10-31T01:14:49;16;14;
64114;PMS5003;62188;35.640;139.748;2023-10-31T01:17:14;15;13;
64114;PMS5003;62188;35.640;139.748;2023-10-31T01:19:40;14;13;
64114;PMS5003;62188;35.640;139.748;2023-10-31T01:22:05;15;15;
64114;PMS5003;62188;35.640;139.748;2023-10-31T01:24:31;11;11;
64114;PMS5003;62188;35.640;139.748;2023-10-31T01:26:56;11;11;
64114;PMS5003;62188;35.640;139.748;2023-10-31T01:29:21;13;13;
64114;PMS5003;62188;35.640;139.748;2023-10-31T01:31:47;13;13;
64114;PMS5003;62188;35.640;139.748;2023-10-31T01:34:12;12;12;
64114;PMS5003;62188;35.640;139.748;2023-10-31T01:36:38;14;13;
64114;PMS5003;62188;35.640;139.748;2023-10-31T01:39:03;13;13;
64114;PMS5003;62188;35.640;139.748;2023-10-31T01:41:29;15;13;
64114;PMS5003;62188;35.640;139.748;2023-10-31T01:43:54;11;11;
64114;PMS5003;62188;35.640;139.748;2023-10-31T01:46:19;12;10;
64114;PMS5003;62188;35.640;139.748;2023-10-31T01:48:45;12;11;
64114;PMS5003;62188;35.640;139.748;2023-10-31T01:51:11;14;12;
64114;PMS5003;62188;35.640;139.748;2023-10-31T01:53:36;13;12;
64114;PMS5003;62188;35.640;139.748;2023-10-31T01:56:01;15;14;
64114;PMS5003;62188;35.640;139.748;2023-10-31T01:58:28;15;14;
64114;PMS5003;62188;35.640;139.748;2023-10-31T02:00:52;16;15;
64114;PMS5003;62188;35.640;139.748;2023-10-31T02:03:18;13;13;
64114;PMS5003;62188;35.640;139.748;2023-10-31T02:05:43;17;16;
64114;PMS5003;62188;35.640;139.748;2023-10-31T02:08:08;16;14;
64114;PMS5003;62188;35.640;139.748;2023-10-31T02:10:33;18;16;
64114;PMS5003;62188;35.640;139.748;2023-10-31T02:13:09;13;13;
64114;PMS5003;62188;35.640;139.748;2023-10-31T02:15:24;14;13;
64114;PMS5003;62188;35.640;139.748;2023-10-31T02:17:50;15;14;
64114;PMS5003;62188;35.640;139.748;2023-10-31T02:20:15;15;12;
64114;PMS5003;62188;35.640;139.748;2023-10-31T02:22:41;15;14;
64114;PMS5003;62188;35.640;139.748;2023-10-31T02:27:31;15;15;
64114;PMS5003;62188;35.640;139.748;2023-10-31T02:29:57;14;13;
64114;PMS5003;62188;35.640;139.748;2023-10-31T02:32:22;13;13;
64114;PMS5003;62188;35.640;139.748;2023-10-31T02:34:48;17;16;
64114;PMS5003;62188;35.640;139.748;2023-10-31T02:37:13;12;11;
64114;PMS5003;62188;35.640;139.748;2023-10-31T02:39:38;14;14;
64114;PMS5003;62188;35.640;139.748;2023-10-31T02:42:04;14;14;
64114;PMS5003;62188;35.640;139.748;2023-10-31T02:44:29;15;14;
64114;PMS5003;62188;35.640;139.748;2023-10-31T02:46:55;14;13;
64114;PMS5003;62188;35.640;139.748;2023-10-31T02:49:20;14;13;
64114;PMS5003;62188;35.640;139.748;2023-10-31T02:51:45;19;17;
64114;PMS5003;62188;35.640;139.748;2023-10-31T02:54:10;11;11;
64114;PMS5003;62188;35.640;139.748;2023-10-31T02:56:36;13;11;
64114;PMS5003;62188;35.640;139.748;2023-10-31T02:59:01;13;13;
64114;PMS5003;62188;35.640;139.748;2023-10-31T03:01:28;14;13;
64114;PMS5003;62188;35.640;139.748;2023-10-31T03:03:52;12;12;
64114;PMS5003;62188;35.640;139.748;2023-10-31T03:06:17;13;12;
64114;PMS5003;62188;35.640;139.748;2023-10-31T03:08:43;14;14;
64114;PMS5003;62188;35.640;139.748;2023-10-31T03:11:08;11;11;
64114;PMS5003;62188;35.640;139.748;2023-10-31T03:13:33;12;12;
64114;PMS5003;62188;35.640;139.748;2023-10-31T03:15:59;11;11;
64114;PMS5003;62188;35.640;139.748;2023-10-31T03:18:24;12;12;
64114;PMS5003;62188;35.640;139.748;2023-10-31T03:20:50;13;13;
64114;PMS5003;62188;35.640;139.748;2023-10-31T03:23:15;11;11;
64114;PMS5003;62188;35.640;139.748;2023-10-31T03:25:40;13;12;
64114;PMS5003;62188;35.640;139.748;2023-10-31T03:28:07;11;11;
64114;PMS5003;62188;35.640;139.748;2023-10-31T03:30:32;14;13;
64114;PMS5003;62188;35.640;139.748;2023-10-31T03:32:57;11;11;
64114;PMS5003;62188;35.640;139.748;2023-10-31T03:35:22;11;11;
64114;PMS5003;62188;35.640;139.748;2023-10-31T03:37:47;12;12;
64114;PMS5003;62188;35.640;139.748;2023-10-31T03:40:13;10;10;
64114;PMS5003;62188;35.640;139.748;2023-10-31T03:42:39;11;11;
64114;PMS5003;62188;35.640;139.748;2023-10-31T03:45:04;11;11;
64114;PMS5003;62188;35.640;139.748;2023-10-31T03:47:29;13;12;
64114;PMS5003;62188;35.640;139.748;2023-10-31T03:49:54;12;10;
64114;PMS5003;62188;35.640;139.748;2023-10-31T03:52:20;12;12;
64114;PMS5003;62188;35.640;139.748;2023-10-31T03:54:45;10;10;
64114;PMS5003;62188;35.640;139.748;2023-10-31T03:57:11;11;10;
64114;PMS5003;62188;35.640;139.748;2023-10-31T03:59:37;13;13;
64114;PMS5003;62188;35.640;139.748;2023-10-31T04:02:02;11;11;
64114;PMS5003;62188;35.640;139.748;2023-10-31T04:04:27;12;12;
64114;PMS5003;62188;35.640;139.748;2023-10-31T04:06:52;11;11;
64114;PMS5003;62188;35.640;139.748;2023-10-31T04:09:18;11;10;
64114;PMS5003;62188;35.640;139.748;2023-10-31T04:11:43;10;10;
64114;PMS5003;62188;35.640;139.748;2023-10-31T04:14:09;11;11;
64114;PMS5003;62188;35.640;139.748;2023-10-31T04:16:38;11;10;
64114;PMS5003;62188;35.640;139.748;2023-10-31T04:19:00;11;11;
64114;PMS5003;62188;35.640;139.748;2023-10-31T04:21:25;11;11;
64114;PMS5003;62188;35.640;139.748;2023-10-31T04:23:50;10;10;
64114;PMS5003;62188;35.640;139.748;2023-10-31T04:26:16;11;11;
64114;PMS5003;62188;35.640;139.748;2023-10-31T04:28:41;12;12;
64114;PMS5003;62188;35.640;139.748;2023-10-31T04:31:07;11;11;
64114;PMS5003;62188;35.640;139.748;2023-10-31T04:33:32;10;10;
64114;PMS5003;62188;35.640;139.748;2023-10-31T04:35:58;11;11;
64114;PMS5003;62188;35.640;139.748;2023-10-31T04:38:23;13;12;
64114;PMS5003;62188;35.640;139.748;2023-10-31T04:40:48;12;11;
64114;PMS5003;62188;35.640;139.748;2023-10-31T04:43:14;13;12;
64114;PMS5003;62188;35.640;139.748;2023-10-31T04:45:39;13;10;
64114;PMS5003;62188;35.640;139.748;2023-10-31T04:48:05;12;12;
64114;PMS5003;62188;35.640;139.748;2023-10-31T04:50:30;11;11;
64114;PMS5003;62188;35.640;139.748;2023-10-31T04:52:56;10;10;
64114;PMS5003;62188;35.640;139.748;2023-10-31T04:55:21;13;13;
64114;PMS5003;62188;35.640;139.748;2023-10-31T04:57:47;16;14;
64114;PMS5003;62188;35.640;139.748;2023-10-31T05:00:12;17;13;
64114;PMS5003;62188;35.640;139.748;2023-10-31T05:02:37;13;11;
64114;PMS5003;62188;35.640;139.748;2023-10-31T05:05:03;14;12;
64114;PMS5003;62188;35.640;139.748;2023-10-31T05:07:28;13;12;
64114;PMS5003;62188;35.640;139.748;2023-10-31T05:09:53;11;11;
64114;PMS5003;62188;35.640;139.748;2023-10-31T05:12:19;12;12;
64114;PMS5003;62188;35.640;139.748;2023-10-31T05:14:44;10;10;
64114;PMS5003;62188;35.640;139.748;2023-10-31T05:17:10;12;12;
64114;PMS5003;62188;35.640;139.748;2023-10-31T05:19:35;15;14;
64114;PMS5003;62188;35.640;139.748;2023-10-31T05:22:00;13;13;
64114;PMS5003;62188;35.640;139.748;2023-10-31T05:24:25;14;14;
64114;PMS5003;62188;35.640;139.748;2023-10-31T05:26:51;13;13;
64114;PMS5003;62188;35.640;139.748;2023-10-31T05:29:17;16;14;
64114;PMS5003;62188;35.640;139.748;2023-10-31T05:31:42;12;12;
64114;PMS5003;62188;35.640;139.748;2023-10-31T05:34:07;13;12;
64114;PMS5003;62188;35.640;139.748;2023-10-31T05:36:33;15;13;
64114;PMS5003;62188;35.640;139.748;2023-10-31T05:38:58;13;13;
64114;PMS5003;62188;35.640;139.748;2023-10-31T05:41:24;16;15;
64114;PMS5003;62188;35.640;139.748;2023-10-31T05:43:49;18;18;
64114;PMS5003;62188;35.640;139.748;2023-10-31T05:46:14;15;15;
64114;PMS5003;62188;35.640;139.748;2023-10-31T05:48:39;13;13;
64114;PMS5003;62188;35.640;139.748;2023-10-31T05:51:05;14;12;
64114;PMS5003;62188;35.640;139.748;2023-10-31T05:53:30;18;16;
64114;PMS5003;62188;35.640;139.748;2023-10-31T05:55:55;15;14;
64114;PMS5003;62188;35.640;139.748;2023-10-31T05:58:21;13;13;
64114;PMS5003;62188;35.640;139.748;2023-10-31T06:00:46;13;13;
64114;PMS5003;62188;35.640;139.748;2023-10-31T06:03:12;16;15;
64114;PMS5003;62188;35.640;139.748;2023-10-31T06:05:37;15;14;
64114;PMS5003;62188;35.640;139.748;2023-10-31T06:08:03;14;14;
64114;PMS5003;62188;35.640;139.748;2023-10-31T06:10:28;14;14;
64114;PMS5003;62188;35.640;139.748;2023-10-31T06:12:53;14;14;
64114;PMS5003;62188;35.640;139.748;2023-10-31T06:15:19;15;15;
64114;PMS5003;62188;35.640;139.748;2023-10-31T06:17:44;16;16;
64114;PMS5003;62188;35.640;139.748;2023-10-31T06:20:10;15;15;
64114;PMS5003;62188;35.640;139.748;2023-10-31T06:22:35;15;15;
64114;PMS5003;62188;35.640;139.748;2023-10-31T06:25:00;17;16;
64114;PMS5003;62188;35.640;139.748;2023-10-31T06:27:27;18;17;
64114;PMS5003;62188;35.640;139.748;2023-10-31T06:29:51;19;16;
64114;PMS5003;62188;35.640;139.748;2023-10-31T06:32:16;18;16;
64114;PMS5003;62188;35.640;139.748;2023-10-31T06:34:41;18;18;
64114;PMS5003;62188;35.640;139.748;2023-10-31T06:37:06;19;17;
64114;PMS5003;62188;35.640;139.748;2023-10-31T06:39:32;17;17;
64114;PMS5003;62188;35.640;139.748;2023-10-31T06:41:57;19;19;
64114;PMS5003;62188;35.640;139.748;2023-10-31T06:44:23;19;19;
64114;PMS5003;62188;35.640;139.748;2023-10-31T06:46:48;17;17;
64114;PMS5003;62188;35.640;139.748;2023-10-31T06:49:14;17;16;
64114;PMS5003;62188;35.640;139.748;2023-10-31T06:51:39;18;18;
64114;PMS5003;62188;35.640;139.748;2023-10-31T06:54:04;17;17;
64114;PMS5003;62188;35.640;139.748;2023-10-31T06:56:30;22;19;
64114;PMS5003;62188;35.640;139.748;2023-10-31T06:58:55;17;17;
64114;PMS5003;62188;35.640;139.748;2023-10-31T07:01:21;17;15;
64114;PMS5003;62188;35.640;139.748;2023-10-31T07:03:46;17;15;
64114;PMS5003;62188;35.640;139.748;2023-10-31T07:06:11;18;17;
64114;PMS5003;62188;35.640;139.748;2023-10-31T07:08:37;20;18;
64114;PMS5003;62188;35.640;139.748;2023-10-31T07:11:02;20;18;
64114;PMS5003;62188;35.640;139.748;2023-10-31T07:13:27;19;16;
64114;PMS5003;62188;35.640;139.748;2023-10-31T07:15:57;19;18;
64114;PMS5003;62188;35.640;139.748;2023-10-31T07:18:18;18;17;
64114;PMS5003;62188;35.640;139.748;2023-10-31T07:20:43;18;17;
64114;PMS5003;62188;35.640;139.748;2023-10-31T07:23:09;17;17;
64114;PMS5003;62188;35.640;139.748;2023-10-31T07:25:34;16;15;
64114;PMS5003;62188;35.640;139.748;2023-10-31T07:28:00;18;18;
64114;PMS5003;62188;35.640;139.748;2023-10-31T07:30:25;17;17;
64114;PMS5003;62188;35.640;139.748;2023-10-31T07:32:50;20;19;
64114;PMS5003;62188;35.640;139.748;2023-10-31T07:35:15;19;17;
64114;PMS5003;62188;35.640;139.748;2023-10-31T07:37:41;19;17;
64114;PMS5003;62188;35.640;139.748;2023-10-31T07:40:07;18;17;
64114;PMS5003;62188;35.640;139.748;2023-10-31T07:42:32;20;18;
64114;PMS5003;62188;35.640;139.748;2023-10-31T07:44:58;16;15;
64114;PMS5003;62188;35.640;139.748;2023-10-31T07:47:23;20;17;
64114;PMS5003;62188;35.640;139.748;2023-10-31T07:49:49;16;16;
64114;PMS5003;62188;35.640;139.748;2023-10-31T07:52:14;17;17;
64114;PMS5003;62188;35.640;139.748;2023-10-31T07:54:39;23;20;
64114;PMS5003;62188;35.640;139.748;2023-10-31T07:57:05;18;18;
64114;PMS5003;62188;35.640;139.748;2023-10-31T07:59:31;22;21;
64114;PMS5003;62188;35.640;139.748;2023-10-31T08:01:55;19;18;
64114;PMS5003;62188;35.640;139.748;2023-10-31T08:04:20;23;20;
64114;PMS5003;62188;35.640;139.748;2023-10-31T08:06:46;21;21;
64114;PMS5003;62188;35.640;139.748;2023-10-31T08:09:11;17;17;
64114;PMS5003;62188;35.640;139.748;2023-10-31T08:11:37;18;17;
64114;PMS5003;62188;35.640;139.748;2023-10-31T08:14:02;18;17;
64114;PMS5003;62188;35.640;139.748;2023-10-31T08:16:27;20;18;
64114;PMS5003;62188;35.640;139.748;2023-10-31T08:18:53;14;14;
64114;PMS5003;62188;35.640;139.748;2023-10-31T08:21:18;16;14;
64114;PMS5003;62188;35.640;139.748;2023-10-31T08:23:44;15;15;
64114;PMS5003;62188;35.640;139.748;2023-10-31T08:26:09;19;16;
64114;PMS5003;62188;35.640;139.748;2023-10-31T08:28:35;14;14;
64114;PMS5003;62188;35.640;139.748;2023-10-31T08:31:01;15;14;
64114;PMS5003;62188;35.640;139.748;2023-10-31T08:33:25;14;14;
64114;PMS5003;62188;35.640;139.748;2023-10-31T08:35:51;15;15;
64114;PMS5003;62188;35.640;139.748;2023-10-31T08:38:16;15;15;
64114;PMS5003;62188;35.640;139.748;2023-10-31T08:40:41;14;14;
64114;PMS5003;62188;35.640;139.748;2023-10-31T08:43:07;12;12;
64114;PMS5003;62188;35.640;139.748;2023-10-31T08:45:32;14;14;
64114;PMS5003;62188;35.640;139.748;2023-10-31T08:47:58;14;14;
64114;PMS5003;62188;35.640;139.748;2023-10-31T08:50:23;16;14;
64114;PMS5003;62188;35.640;139.748;2023-10-31T08:52:48;15;15;
64114;PMS5003;62188;35.640;139.748;2023-10-31T08:55:14;15;15;
64114;PMS5003;62188;35.640;139.748;2023-10-31T08:57:39;19;18;
64114;PMS5003;62188;35.640;139.748;2023-10-31T09:00:05;16;15;
64114;PMS5003;62188;35.640;139.748;2023-10-31T09:02:30;14;14;
64114;PMS5003;62188;35.640;139.748;2023-10-31T09:04:55;15;14;
64114;PMS5003;62188;35.640;139.748;2023-10-31T09:07:21;16;14;
64114;PMS5003;62188;35.640;139.748;2023-10-31T09:09:46;14;14;
64114;PMS5003;62188;35.640;139.748;2023-10-31T09:12:12;13;12;
64114;PMS5003;62188;35.640;139.748;2023-10-31T09:14:37;15;15;
64114;PMS5003;62188;35.640;139.748;2023-10-31T09:17:03;13;12;
64114;PMS5003;62188;35.640;139.748;2023-10-31T09:19:28;12;11;
64114;PMS5003;62188;35.640;139.748;2023-10-31T09:21:53;14;13;
64114;PMS5003;62188;35.640;139.748;2023-10-31T09:24:20;11;11;
64114;PMS5003;62188;35.640;139.748;2023-10-31T09:26:44;15;14;
64114;PMS5003;62188;35.640;139.748;2023-10-31T09:29:10;17;14;
64114;PMS5003;62188;35.640;139.748;2023-10-31T09:31:35;11;11;
64114;PMS5003;62188;35.640;139.748;2023-10-31T09:34:00;11;11;
64114;PMS5003;62188;35.640;139.748;2023-10-31T09:36:25;13;12;
64114;PMS5003;62188;35.640;139.748;2023-10-31T09:38:50;12;9;
64114;PMS5003;62188;35.640;139.748;2023-10-31T09:41:16;13;12;
64114;PMS5003;62188;35.640;139.748;2023-10-31T09:43:42;14;13;
64114;PMS5003;62188;35.640;139.748;2023-10-31T09:46:07;11;11;
64114;PMS5003;62188;35.640;139.748;2023-10-31T09:48:33;12;12;
64114;PMS5003;62188;35.640;139.748;2023-10-31T09:50:58;11;11;
64114;PMS5003;62188;35.640;139.748;2023-10-31T09:53:24;13;11;
64114;PMS5003;62188;35.640;139.748;2023-10-31T09:55:49;10;9;
64114;PMS5003;62188;35.640;139.748;2023-10-31T09:58:14;12;12;
64114;PMS5003;62188;35.640;139.748;2023-10-31T10:00:40;14;14;
64114;PMS5003;62188;35.640;139.748;2023-10-31T10:03:05;12;12;
64114;PMS5003;62188;35.640;139.748;2023-10-31T10:05:31;15;12;
64114;PMS5003;62188;35.640;139.748;2023-10-31T10:07:57;13;13;
64114;PMS5003;62188;35.640;139.748;2023-10-31T10:10:22;14;13;
64114;PMS5003;62188;35.640;139.748;2023-10-31T10:12:47;17;16;
64114;PMS5003;62188;35.640;139.748;2023-10-31T10:15:12;15;14;
64114;PMS5003;62188;35.640;139.748;2023-10-31T10:17:38;14;13;
64114;PMS5003;62188;35.640;139.748;2023-10-31T10:20:06;11;11;
64114;PMS5003;62188;35.640;139.748;2023-10-31T10:22:29;13;13;
64114;PMS5003;62188;35.640;139.748;2023-10-31T10:24:54;15;15;
64114;PMS5003;62188;35.640;139.748;2023-10-31T10:27:20;16;16;
64114;PMS5003;62188;35.640;139.748;2023-10-31T10:29:44;19;17;
64114;PMS5003;62188;35.640;139.748;2023-10-31T10:32:10;14;14;
64114;PMS5003;62188;35.640;139.748;2023-10-31T10:34:35;16;15;
64114;PMS5003;62188;35.640;139.748;2023-10-31T10:37:01;17;16;
64114;PMS5003;62188;35.640;139.748;2023-10-31T10:39:26;18;17;
64114;PMS5003;62188;35.640;139.748;2023-10-31T10:41:53;16;15;
64114;PMS5003;62188;35.640;139.748;2023-10-31T10:44:17;18;18;
64114;PMS5003;62188;35.640;139.748;2023-10-31T10:46:42;16;16;
64114;PMS5003;62188;35.640;139.748;2023-10-31T10:49:08;14;14;
64114;PMS5003;62188;35.640;139.748;2023-10-31T10:51:38;16;15;
64114;PMS5003;62188;35.640;139.748;2023-10-31T10:54:01;16;15;
64114;PMS5003;62188;35.640;139.748;2023-10-31T10:56:25;14;14;
64114;PMS5003;62188;35.640;139.748;2023-10-31T10:58:51;16;15;
64114;PMS5003;62188;35.640;139.748;2023-10-31T11:01:16;15;14;
64114;PMS5003;62188;35.640;139.748;2023-10-31T11:03:41;15;15;
64114;PMS5003;62188;35.640;139.748;2023-10-31T11:06:06;15;14;
64114;PMS5003;62188;35.640;139.748;2023-10-31T11:08:32;15;14;
64114;PMS5003;62188;35.640;139.748;2023-10-31T11:10:58;12;12;
64114;PMS5003;62188;35.640;139.748;2023-10-31T11:13:23;14;14;
64114;PMS5003;62188;35.640;139.748;2023-10-31T11:15:48;15;14;
64114;PMS5003;62188;35.640;139.748;2023-10-31T11:18:13;13;13;
64114;PMS5003;62188;35.640;139.748;2023-10-31T11:20:39;13;13;
64114;PMS5003;62188;35.640;139.748;2023-10-31T11:23:04;14;14;
64114;PMS5003;62188;35.640;139.748;2023-10-31T11:25:31;12;12;
64114;PMS5003;62188;35.640;139.748;2023-10-31T11:27:56;14;14;
64114;PMS5003;62188;35.640;139.748;2023-10-31T11:30:21;14;13;
64114;PMS5003;62188;35.640;139.748;2023-10-31T11:32:47;17;16;
64114;PMS5003;62188;35.640;139.748;2023-10-31T11:35:11;14;13;
64114;PMS5003;62188;35.640;139.748;2023-10-31T11:37:37;13;13;
64114;PMS5003;62188;35.640;139.748;2023-10-31T11:42:27;14;12;
64114;PMS5003;62188;35.640;139.748;2023-10-31T11:44:54;12;12;
64114;PMS5003;62188;35.640;139.748;2023-10-31T11:47:18;15;15;
64114;PMS5003;62188;35.640;139.748;2023-10-31T11:49:46;10;10;
64114;PMS5003;62188;35.640;139.748;2023-10-31T11:54:34;12;12;
64114;PMS5003;62188;35.640;139.748;2023-10-31T11:57:00;14;13;
64114;PMS5003;62188;35.640;139.748;2023-10-31T11:59:25;13;12;
64114;PMS5003;62188;35.640;139.748;2023-10-31T12:01:51;13;13;
64114;PMS5003;62188;35.640;139.748;2023-10-31T12:04:21;13;13;
64114;PMS5003;62188;35.640;139.748;2023-10-31T12:06:41;14;13;
64114;PMS5003;62188;35.640;139.748;2023-10-31T12:09:07;13;13;
64114;PMS5003;62188;35.640;139.748;2023-10-31T12:11:32;15;15;
64114;PMS5003;62188;35.640;139.748;2023-10-31T12:13:59;17;17;
64114;PMS5003;62188;35.640;139.748;2023-10-31T12:16:24;13;13;
64114;PMS5003;62188;35.640;139.748;2023-10-31T12:21:14;16;15;
64114;PMS5003;62188;35.640;139.748;2023-10-31T12:23:40;15;13;
64114;PMS5003;62188;35.640;139.748;2023-10-31T12:26:05;17;17;
64114;PMS5003;62188;35.640;139.748;2023-10-31T12:28:30;17;16;
64114;PMS5003;62188;35.640;139.748;2023-10-31T12:30:56;16;15;
64114;PMS5003;62188;35.640;139.748;2023-10-31T12:33:21;16;15;
64114;PMS5003;62188;35.640;139.748;2023-10-31T12:35:47;19;17;
64114;PMS5003;62188;35.640;139.748;2023-10-31T12:38:12;14;14;
64114;PMS5003;62188;35.640;139.748;2023-10-31T12:40:37;16;16;
64114;PMS5003;62188;35.640;139.748;2023-10-31T12:43:03;20;19;
64114;PMS5003;62188;35.640;139.748;2023-10-31T12:45:29;18;15;
64114;PMS5003;62188;35.640;139.748;2023-10-31T12:48:02;18;18;
64114;PMS5003;62188;35.640;139.748;2023-10-31T12:50:19;16;16;
64114;PMS5003;62188;35.640;139.748;2023-10-31T12:52:46;19;17;
64114;PMS5003;62188;35.640;139.748;2023-10-31T12:55:12;16;15;
64114;PMS5003;62188;35.640;139.748;2023-10-31T12:57:35;23;21;
64114;PMS5003;62188;35.640;139.748;2023-10-31T13:00:00;18;17;
64114;PMS5003;62188;35.640;139.748;2023-10-31T13:02:26;18;17;
64114;PMS5003;62188;35.640;139.748;2023-10-31T13:04:52;14;14;
64114;PMS5003;62188;35.640;139.748;2023-10-31T13:07:25;15;15;
64114;PMS5003;62188;35.640;139.748;2023-10-31T13:09:43;17;16;
64114;PMS5003;62188;35.640;139.748;2023-10-31T13:12:08;22;17;
64114;PMS5003;62188;35.640;139.748;2023-10-31T13:14:33;24;22;
64114;PMS5003;62188;35.640;139.748;2023-10-31T13:16:58;18;18;
64114;PMS5003;62188;35.640;139.748;2023-10-31T13:19:24;26;25;
64114;PMS5003;62188;35.640;139.748;2023-10-31T13:21:49;32;30;
64114;PMS5003;62188;35.640;139.748;2023-10-31T13:24:14;28;27;
64114;PMS5003;62188;35.640;139.748;2023-10-31T13:26:39;31;29;
64114;PMS5003;62188;35.640;139.748;2023-10-31T13:29:05;25;25;
64114;PMS5003;62188;35.640;139.748;2023-10-31T13:31:30;25;25;
64114;PMS5003;62188;35.640;139.748;2023-10-31T13:33:56;29;26;
64114;PMS5003;62188;35.640;139.748;2023-10-31T13:36:20;25;24;
64114;PMS5003;62188;35.640;139.748;2023-10-31T13:38:46;27;25;
64114;PMS5003;62188;35.640;139.748;2023-10-31T13:41:12;24;23;
64114;PMS5003;62188;35.640;139.748;2023-10-31T13:43:37;23;23;
64114;PMS5003;62188;35.640;139.748;2023-10-31T13:46:03;23;22;
64114;PMS5003;62188;35.640;139.748;2023-10-31T13:48:28;23;22;
64114;PMS5003;62188;35.640;139.748;2023-10-31T13:50:54;23;23;
64114;PMS5003;62188;35.640;139.748;2023-10-31T13:53:19;24;22;
64114;PMS5003;62188;35.640;139.748;2023-10-31T13:55:44;19;18;
64114;PMS5003;62188;35.640;139.748;2023-10-31T13:58:09;19;19;
64114;PMS5003;62188;35.640;139.748;2023-10-31T14:00:34;19;18;
64114;PMS5003;62188;35.640;139.748;2023-10-31T14:03:00;18;18;
64114;PMS5003;62188;35.640;139.748;2023-10-31T14:05:25;19;19;
64114;PMS5003;62188;35.640;139.748;2023-10-31T14:07:50;17;17;
64114;PMS5003;62188;35.640;139.748;2023-10-31T14:10:16;18;17;
64114;PMS5003;62188;35.640;139.748;2023-10-31T14:12:42;18;17;
64114;PMS5003;62188;35.640;139.748;2023-10-31T14:15:07;20;19;
64114;PMS5003;62188;35.640;139.748;2023-10-31T14:17:33;22;22;
64114;PMS5003;62188;35.640;139.748;2023-10-31T14:19:58;19;19;
64114;PMS5003;62188;35.640;139.748;2023-10-31T14:22:23;19;19;
64114;PMS5003;62188;35.640;139.748;2023-10-31T14:24:49;19;19;
64114;PMS5003;62188;35.640;139.748;2023-10-31T14:27:14;23;22;
64114;PMS5003;62188;35.640;139.748;2023-10-31T14:29:39;22;22;
64114;PMS5003;62188;35.640;139.748;2023-10-31T14:32:06;20;18;
64114;PMS5003;62188;35.640;139.748;2023-10-31T14:34:31;19;19;
64114;PMS5003;62188;35.640;139.748;2023-10-31T14:36:55;21;21;
64114;PMS5003;62188;35.640;139.748;2023-10-31T14:39:20;20;19;
64114;PMS5003;62188;35.640;139.748;2023-10-31T14:41:46;21;19;
64114;PMS5003;62188;35.640;139.748;2023-10-31T14:44:11;20;20;
64114;PMS5003;62188;35.640;139.748;2023-10-31T14:46:38;20;20;
64114;PMS5003;62188;35.640;139.748;2023-10-31T14:49:03;21;19;
64114;PMS5003;62188;35.640;139.748;2023-10-31T14:51:28;20;17;
64114;PMS5003;62188;35.640;139.748;2023-10-31T14:53:54;19;19;
64114;PMS5003;62188;35.640;139.748;2023-10-31T14:56:19;19;18;
64114;PMS5003;62188;35.640;139.748;2023-10-31T14:58:44;20;20;
64114;PMS5003;62188;35.640;139.748;2023-10-31T15:01:10;19;19;
64114;PMS5003;62188;35.640;139.748;2023-10-31T15:03:35;21;20;
64114;PMS5003;62188;35.640;139.748;2023-10-31T15:06:02;22;20;
64114;PMS5003;62188;35.640;139.748;2023-10-31T15:08:26;21;19;
64114;PMS5003;62188;35.640;139.748;2023-10-31T15:10:52;20;20;
64114;PMS5003;62188;35.640;139.748;2023-10-31T15:13:17;23;21;
64114;PMS5003;62188;35.640;139.748;2023-10-31T15:15:43;23;23;
64114;PMS5003;62188;35.640;139.748;2023-10-31T15:18:07;23;22;
64114;PMS5003;62188;35.640;139.748;2023-10-31T15:20:33;23;21;
64114;PMS5003;62188;35.640;139.748;2023-10-31T15:22:58;23;23;
64114;PMS5003;62188;35.640;139.748;2023-10-31T15:25:24;25;25;
64114;PMS5003;62188;35.640;139.748;2023-10-31T15:27:48;26;24;
64114;PMS5003;62188;35.640;139.748;2023-10-31T15:30:14;30;26;
64114;PMS5003;62188;35.640;139.748;2023-10-31T15:32:39;22;22;
64114;PMS5003;62188;35.640;139.748;2023-10-31T15:35:04;29;27;
64114;PMS5003;62188;35.640;139.748;2023-10-31T15:37:30;31;29;
64114;PMS5003;62188;35.640;139.748;2023-10-31T15:39:55;27;26;
64114;PMS5003;62188;35.640;139.748;2023-10-31T15:42:21;28;26;
64114;PMS5003;62188;35.640;139.748;2023-10-31T15:44:47;26;26;